sensor_id;sensor_type;location;lat;lon;timestamp;P1;durP1;ratioP1;P2;durP2;ratioP2
22024;SDS011;11176;51.448;6.650;2023-02-03T00:01:49;19.70;;;13.82;;
22024;SDS011;11176;51.448;6.650;2023-02-03T00:04:15;20.85;;;13.05;;
22024;SDS011;11176;51.448;6.650;2023-02-03T00:06:42;21.42;;;13.85;;
22024;SDS011;11176;51.448;6.650;2023-02-03T00:09:09;18.77;;;12.52;;
22024;SDS011;11176;51.448;6.650;2023-02-03T00:11:36;16.58;;;12.68;;
22024;SDS011;11176;51.448;6.650;2023-02-03T00:14:02;23.15;;;13.07;;
22024;SDS011;11176;51.448;6.650;2023-02-03T00:16:30;21.13;;;12.45;;
22024;SDS011;11176;51.448;6.650;2023-02-03T00:18:57;19.77;;;13.27;;
22024;SDS011;11176;51.448;6.650;2023-02-03T00:21:23;19.95;;;12.32;;
22024;SDS011;11176;51.448;6.650;2023-02-03T00:23:50;21.00;;;13.32;;
22024;SDS011;11176;51.448;6.650;2023-02-03T00:26:17;21.90;;;14.07;;
22024;SDS011;11176;51.448;6.650;2023-02-03T00:28:45;19.00;;;13.32;;
22024;SDS011;11176;51.448;6.650;2023-02-03T00:31:16;19.27;;;13.55;;
22024;SDS011;11176;51.448;6.650;2023-02-03T00:33:45;18.00;;;13.38;;
22024;SDS011;11176;51.448;6.650;2023-02-03T00:36:11;19.80;;;12.85;;
22024;SDS011;11176;51.448;6.650;2023-02-03T00:38:38;21.90;;;14.55;;
22024;SDS011;11176;51.448;6.650;2023-02-03T00:41:05;20.02;;;13.10;;
22024;SDS011;11176;51.448;6.650;2023-02-03T00:43:32;22.63;;;13.30;;
22024;SDS011;11176;51.448;6.650;2023-02-03T00:45:58;20.75;;;14.15;;
22024;SDS011;11176;51.448;6.650;2023-02-03T00:48:25;22.17;;;13.93;;
22024;SDS011;11176;51.448;6.650;2023-02-03T00:50:51;20.80;;;14.45;;
22024;SDS011;11176;51.448;6.650;2023-02-03T00:53:18;22.30;;;14.70;;
22024;SDS011;11176;51.448;6.650;2023-02-03T00:55:44;24.52;;;14.35;;
22024;SDS011;11176;51.448;6.650;2023-02-03T00:58:11;20.60;;;13.00;;
22024;SDS011;11176;51.448;6.650;2023-02-03T01:00:37;25.48;;;14.38;;
22024;SDS011;11176;51.448;6.650;2023-02-03T01:03:04;22.45;;;14.48;;
22024;SDS011;11176;51.448;6.650;2023-02-03T01:05:30;19.70;;;13.38;;
22024;SDS011;11176;51.448;6.650;2023-02-03T01:07:57;23.75;;;13.98;;
22024;SDS011;11176;51.448;6.650;2023-02-03T01:10:25;23.38;;;14.40;;
22024;SDS011;11176;51.448;6.650;2023-02-03T01:12:52;20.20;;;13.60;;
22024;SDS011;11176;51.448;6.650;2023-02-03T01:15:18;22.92;;;13.80;;
22024;SDS011;11176;51.448;6.650;2023-02-03T01:17:45;21.58;;;13.80;;
22024;SDS011;11176;51.448;6.650;2023-02-03T01:20:11;21.98;;;13.68;;
22024;SDS011;11176;51.448;6.650;2023-02-03T01:22:39;24.00;;;13.15;;
22024;SDS011;11176;51.448;6.650;2023-02-03T01:25:06;17.27;;;13.73;;
22024;SDS011;11176;51.448;6.650;2023-02-03T01:27:33;22.45;;;14.13;;
22024;SDS011;11176;51.448;6.650;2023-02-03T01:29:59;21.10;;;12.98;;
22024;SDS011;11176;51.448;6.650;2023-02-03T01:32:26;22.60;;;13.43;;
22024;SDS011;11176;51.448;6.650;2023-02-03T01:34:53;18.08;;;12.75;;
22024;SDS011;11176;51.448;6.650;2023-02-03T01:37:19;21.27;;;12.65;;
22024;SDS011;11176;51.448;6.650;2023-02-03T01:39:46;19.00;;;12.15;;
22024;SDS011;11176;51.448;6.650;2023-02-03T01:42:13;21.15;;;12.02;;
22024;SDS011;11176;51.448;6.650;2023-02-03T01:44:42;18.10;;;10.70;;
22024;SDS011;11176;51.448;6.650;2023-02-03T01:49:53;18.42;;;11.27;;
22024;SDS011;11176;51.448;6.650;2023-02-03T01:52:27;18.23;;;12.70;;
22024;SDS011;11176;51.448;6.650;2023-02-03T01:54:56;18.92;;;10.88;;
22024;SDS011;11176;51.448;6.650;2023-02-03T01:57:26;16.50;;;9.95;;
22024;SDS011;11176;51.448;6.650;2023-02-03T01:59:57;19.83;;;10.88;;
22024;SDS011;11176;51.448;6.650;2023-02-03T02:02:26;22.35;;;10.52;;
22024;SDS011;11176;51.448;6.650;2023-02-03T02:07:53;21.52;;;11.00;;
22024;SDS011;11176;51.448;6.650;2023-02-03T02:10:22;14.75;;;9.52;;
22024;SDS011;11176;51.448;6.650;2023-02-03T02:12:48;17.52;;;10.32;;
22024;SDS011;11176;51.448;6.650;2023-02-03T02:15:15;15.70;;;9.57;;
22024;SDS011;11176;51.448;6.650;2023-02-03T02:17:53;18.35;;;10.23;;
22024;SDS011;11176;51.448;6.650;2023-02-03T02:34:49;16.83;;;9.15;;
22024;SDS011;11176;51.448;6.650;2023-02-03T02:43:14;17.88;;;8.52;;
22024;SDS011;11176;51.448;6.650;2023-02-03T02:50:59;11.93;;;7.05;;
22024;SDS011;11176;51.448;6.650;2023-02-03T02:53:31;14.07;;;6.88;;
22024;SDS011;11176;51.448;6.650;2023-02-03T02:56:02;14.77;;;6.57;;
22024;SDS011;11176;51.448;6.650;2023-02-03T02:58:33;13.50;;;6.75;;
22024;SDS011;11176;51.448;6.650;2023-02-03T03:01:04;13.85;;;6.72;;
22024;SDS011;11176;51.448;6.650;2023-02-03T03:03:36;13.68;;;5.85;;
22024;SDS011;11176;51.448;6.650;2023-02-03T03:06:07;16.77;;;6.40;;
22024;SDS011;11176;51.448;6.650;2023-02-03T03:08:58;13.18;;;6.10;;
22024;SDS011;11176;51.448;6.650;2023-02-03T03:11:30;14.10;;;6.10;;
22024;SDS011;11176;51.448;6.650;2023-02-03T03:14:00;12.00;;;5.85;;
22024;SDS011;11176;51.448;6.650;2023-02-03T03:16:31;15.55;;;5.85;;
22024;SDS011;11176;51.448;6.650;2023-02-03T03:19:06;14.95;;;6.13;;
22024;SDS011;11176;51.448;6.650;2023-02-03T03:21:39;14.38;;;6.00;;
22024;SDS011;11176;51.448;6.650;2023-02-03T03:24:14;12.23;;;5.07;;
22024;SDS011;11176;51.448;6.650;2023-02-03T03:29:40;13.05;;;5.50;;
22024;SDS011;11176;51.448;6.650;2023-02-03T03:32:10;11.15;;;5.63;;
22024;SDS011;11176;51.448;6.650;2023-02-03T03:34:36;10.95;;;5.40;;
22024;SDS011;11176;51.448;6.650;2023-02-03T03:39:57;11.52;;;5.28;;
22024;SDS011;11176;51.448;6.650;2023-02-03T03:45:09;10.05;;;4.93;;
22024;SDS011;11176;51.448;6.650;2023-02-03T03:47:43;14.70;;;5.30;;
22024;SDS011;11176;51.448;6.650;2023-02-03T03:50:20;9.73;;;4.78;;
22024;SDS011;11176;51.448;6.650;2023-02-03T03:52:51;9.23;;;5.00;;
22024;SDS011;11176;51.448;6.650;2023-02-03T03:55:21;10.73;;;5.07;;
22024;SDS011;11176;51.448;6.650;2023-02-03T03:57:50;10.60;;;4.53;;
22024;SDS011;11176;51.448;6.650;2023-02-03T04:00:22;10.05;;;4.50;;
22024;SDS011;11176;51.448;6.650;2023-02-03T04:02:54;10.02;;;4.88;;
22024;SDS011;11176;51.448;6.650;2023-02-03T04:05:23;12.45;;;4.88;;
22024;SDS011;11176;51.448;6.650;2023-02-03T04:07:51;11.05;;;4.65;;
22024;SDS011;11176;51.448;6.650;2023-02-03T04:12:52;10.13;;;4.55;;
22024;SDS011;11176;51.448;6.650;2023-02-03T04:15:18;13.82;;;4.80;;
22024;SDS011;11176;51.448;6.650;2023-02-03T04:17:45;13.50;;;5.05;;
22024;SDS011;11176;51.448;6.650;2023-02-03T04:20:11;12.30;;;4.80;;
22024;SDS011;11176;51.448;6.650;2023-02-03T04:22:38;10.07;;;4.63;;
22024;SDS011;11176;51.448;6.650;2023-02-03T04:25:05;10.82;;;5.07;;
22024;SDS011;11176;51.448;6.650;2023-02-03T04:27:32;11.85;;;4.75;;
22024;SDS011;11176;51.448;6.650;2023-02-03T04:29:59;10.68;;;4.20;;
22024;SDS011;11176;51.448;6.650;2023-02-03T04:32:26;11.93;;;5.05;;
22024;SDS011;11176;51.448;6.650;2023-02-03T04:34:53;10.73;;;4.78;;
22024;SDS011;11176;51.448;6.650;2023-02-03T04:37:20;13.38;;;5.18;;
22024;SDS011;11176;51.448;6.650;2023-02-03T04:39:48;7.50;;;4.20;;
22024;SDS011;11176;51.448;6.650;2023-02-03T04:42:17;16.33;;;5.38;;
22024;SDS011;11176;51.448;6.650;2023-02-03T04:44:44;9.50;;;4.32;;
22024;SDS011;11176;51.448;6.650;2023-02-03T04:47:10;9.73;;;4.43;;
22024;SDS011;11176;51.448;6.650;2023-02-03T04:49:37;11.15;;;4.15;;
22024;SDS011;11176;51.448;6.650;2023-02-03T04:52:03;10.80;;;4.25;;
22024;SDS011;11176;51.448;6.650;2023-02-03T04:54:30;12.13;;;4.15;;
22024;SDS011;11176;51.448;6.650;2023-02-03T04:56:56;11.30;;;3.70;;
22024;SDS011;11176;51.448;6.650;2023-02-03T04:59:23;13.23;;;3.97;;
22024;SDS011;11176;51.448;6.650;2023-02-03T05:01:49;9.82;;;3.97;;
22024;SDS011;11176;51.448;6.650;2023-02-03T05:04:16;8.15;;;3.58;;
22024;SDS011;11176;51.448;6.650;2023-02-03T05:06:42;8.07;;;3.65;;
22024;SDS011;11176;51.448;6.650;2023-02-03T05:09:09;7.47;;;3.60;;
22024;SDS011;11176;51.448;6.650;2023-02-03T05:11:35;9.52;;;3.40;;
22024;SDS011;11176;51.448;6.650;2023-02-03T05:14:02;8.90;;;3.42;;
22024;SDS011;11176;51.448;6.650;2023-02-03T05:16:29;9.65;;;3.78;;
22024;SDS011;11176;51.448;6.650;2023-02-03T05:18:56;10.13;;;3.45;;
22024;SDS011;11176;51.448;6.650;2023-02-03T05:21:22;8.00;;;3.28;;
22024;SDS011;11176;51.448;6.650;2023-02-03T05:23:49;7.30;;;3.13;;
22024;SDS011;11176;51.448;6.650;2023-02-03T05:26:15;8.02;;;3.20;;
22024;SDS011;11176;51.448;6.650;2023-02-03T05:28:42;9.68;;;3.45;;
22024;SDS011;11176;51.448;6.650;2023-02-03T05:31:08;9.20;;;2.95;;
22024;SDS011;11176;51.448;6.650;2023-02-03T05:33:35;7.72;;;3.05;;
22024;SDS011;11176;51.448;6.650;2023-02-03T05:36:01;8.43;;;2.90;;
22024;SDS011;11176;51.448;6.650;2023-02-03T05:38:28;11.25;;;3.25;;
22024;SDS011;11176;51.448;6.650;2023-02-03T05:40:54;7.63;;;3.03;;
22024;SDS011;11176;51.448;6.650;2023-02-03T05:43:39;8.95;;;3.38;;
22024;SDS011;11176;51.448;6.650;2023-02-03T05:46:06;8.65;;;2.97;;
22024;SDS011;11176;51.448;6.650;2023-02-03T05:48:33;10.70;;;3.60;;
22024;SDS011;11176;51.448;6.650;2023-02-03T05:51:00;8.52;;;2.92;;
22024;SDS011;11176;51.448;6.650;2023-02-03T05:53:26;10.43;;;3.38;;
22024;SDS011;11176;51.448;6.650;2023-02-03T05:55:53;9.70;;;2.88;;
22024;SDS011;11176;51.448;6.650;2023-02-03T05:58:19;8.52;;;3.10;;
22024;SDS011;11176;51.448;6.650;2023-02-03T06:00:46;12.13;;;2.97;;
22024;SDS011;11176;51.448;6.650;2023-02-03T06:03:13;9.48;;;2.95;;
22024;SDS011;11176;51.448;6.650;2023-02-03T06:05:39;9.30;;;3.05;;
22024;SDS011;11176;51.448;6.650;2023-02-03T06:08:06;9.10;;;3.50;;
22024;SDS011;11176;51.448;6.650;2023-02-03T06:10:33;7.50;;;3.22;;
22024;SDS011;11176;51.448;6.650;2023-02-03T06:13:06;8.48;;;2.90;;
22024;SDS011;11176;51.448;6.650;2023-02-03T06:15:37;8.98;;;3.40;;
22024;SDS011;11176;51.448;6.650;2023-02-03T06:18:04;10.10;;;3.05;;
22024;SDS011;11176;51.448;6.650;2023-02-03T06:20:31;10.27;;;3.22;;
22024;SDS011;11176;51.448;6.650;2023-02-03T06:22:58;9.05;;;3.22;;
22024;SDS011;11176;51.448;6.650;2023-02-03T06:25:24;8.05;;;2.95;;
22024;SDS011;11176;51.448;6.650;2023-02-03T06:27:51;7.47;;;2.70;;
22024;SDS011;11176;51.448;6.650;2023-02-03T06:30:17;9.52;;;2.90;;
22024;SDS011;11176;51.448;6.650;2023-02-03T06:32:46;8.63;;;3.25;;
22024;SDS011;11176;51.448;6.650;2023-02-03T06:35:13;9.48;;;2.95;;
22024;SDS011;11176;51.448;6.650;2023-02-03T06:37:40;7.50;;;2.70;;
22024;SDS011;11176;51.448;6.650;2023-02-03T06:40:07;8.27;;;2.55;;
22024;SDS011;11176;51.448;6.650;2023-02-03T06:42:34;8.25;;;2.55;;
22024;SDS011;11176;51.448;6.650;2023-02-03T06:45:01;5.43;;;2.50;;
22024;SDS011;11176;51.448;6.650;2023-02-03T06:47:28;9.57;;;3.10;;
22024;SDS011;11176;51.448;6.650;2023-02-03T06:49:54;6.25;;;2.60;;
22024;SDS011;11176;51.448;6.650;2023-02-03T06:52:21;8.15;;;2.90;;
22024;SDS011;11176;51.448;6.650;2023-02-03T06:54:47;12.20;;;3.00;;
22024;SDS011;11176;51.448;6.650;2023-02-03T06:57:14;12.65;;;3.15;;
22024;SDS011;11176;51.448;6.650;2023-02-03T06:59:40;7.38;;;2.67;;
22024;SDS011;11176;51.448;6.650;2023-02-03T07:02:08;9.75;;;3.13;;
22024;SDS011;11176;51.448;6.650;2023-02-03T07:04:36;8.27;;;2.97;;
22024;SDS011;11176;51.448;6.650;2023-02-03T07:07:04;7.65;;;2.90;;
22024;SDS011;11176;51.448;6.650;2023-02-03T07:09:30;9.15;;;4.43;;
22024;SDS011;11176;51.448;6.650;2023-02-03T07:11:57;6.07;;;3.03;;
22024;SDS011;11176;51.448;6.650;2023-02-03T07:14:23;9.75;;;3.22;;
22024;SDS011;11176;51.448;6.650;2023-02-03T07:16:50;9.63;;;3.15;;
22024;SDS011;11176;51.448;6.650;2023-02-03T07:19:16;9.18;;;2.88;;
22024;SDS011;11176;51.448;6.650;2023-02-03T07:21:42;8.07;;;3.00;;
22024;SDS011;11176;51.448;6.650;2023-02-03T07:24:09;11.15;;;3.20;;
22024;SDS011;11176;51.448;6.650;2023-02-03T07:26:35;8.88;;;2.95;;
22024;SDS011;11176;51.448;6.650;2023-02-03T07:29:02;7.57;;;2.47;;
22024;SDS011;11176;51.448;6.650;2023-02-03T07:31:29;9.88;;;2.60;;
22024;SDS011;11176;51.448;6.650;2023-02-03T07:33:55;8.07;;;2.63;;
22024;SDS011;11176;51.448;6.650;2023-02-03T07:36:22;6.00;;;2.75;;
22024;SDS011;11176;51.448;6.650;2023-02-03T07:38:49;10.55;;;2.90;;
22024;SDS011;11176;51.448;6.650;2023-02-03T07:41:16;8.40;;;3.03;;
22024;SDS011;11176;51.448;6.650;2023-02-03T07:43:43;11.45;;;2.97;;
22024;SDS011;11176;51.448;6.650;2023-02-03T07:46:09;6.63;;;3.00;;
22024;SDS011;11176;51.448;6.650;2023-02-03T07:48:36;10.75;;;2.80;;
22024;SDS011;11176;51.448;6.650;2023-02-03T07:51:03;7.80;;;2.80;;
22024;SDS011;11176;51.448;6.650;2023-02-03T07:53:29;6.88;;;2.47;;
22024;SDS011;11176;51.448;6.650;2023-02-03T07:56:00;7.88;;;2.88;;
22024;SDS011;11176;51.448;6.650;2023-02-03T07:58:29;6.53;;;2.30;;
22024;SDS011;11176;51.448;6.650;2023-02-03T08:00:56;8.48;;;2.85;;
22024;SDS011;11176;51.448;6.650;2023-02-03T08:03:23;9.25;;;2.47;;
22024;SDS011;11176;51.448;6.650;2023-02-03T08:05:50;4.78;;;2.40;;
22024;SDS011;11176;51.448;6.650;2023-02-03T08:08:18;10.43;;;2.83;;
22024;SDS011;11176;51.448;6.650;2023-02-03T08:10:45;8.73;;;2.40;;
22024;SDS011;11176;51.448;6.650;2023-02-03T08:13:11;5.13;;;2.70;;
22024;SDS011;11176;51.448;6.650;2023-02-03T08:15:38;7.15;;;2.78;;
22024;SDS011;11176;51.448;6.650;2023-02-03T08:18:04;8.55;;;2.83;;
22024;SDS011;11176;51.448;6.650;2023-02-03T08:20:30;9.70;;;2.40;;
22024;SDS011;11176;51.448;6.650;2023-02-03T08:22:57;7.75;;;2.42;;
22024;SDS011;11176;51.448;6.650;2023-02-03T08:25:23;6.80;;;2.30;;
22024;SDS011;11176;51.448;6.650;2023-02-03T08:27:51;9.52;;;3.03;;
22024;SDS011;11176;51.448;6.650;2023-02-03T08:30:18;9.98;;;2.63;;
22024;SDS011;11176;51.448;6.650;2023-02-03T08:32:44;7.30;;;3.08;;
22024;SDS011;11176;51.448;6.650;2023-02-03T08:35:11;6.97;;;2.53;;
22024;SDS011;11176;51.448;6.650;2023-02-03T08:37:37;6.53;;;2.80;;
22024;SDS011;11176;51.448;6.650;2023-02-03T08:40:04;11.30;;;2.60;;
22024;SDS011;11176;51.448;6.650;2023-02-03T08:42:31;4.45;;;2.30;;
22024;SDS011;11176;51.448;6.650;2023-02-03T08:44:58;10.95;;;2.92;;
22024;SDS011;11176;51.448;6.650;2023-02-03T08:47:25;6.38;;;2.63;;
22024;SDS011;11176;51.448;6.650;2023-02-03T08:49:52;9.38;;;2.50;;
22024;SDS011;11176;51.448;6.650;2023-02-03T08:52:18;10.65;;;2.67;;
22024;SDS011;11176;51.448;6.650;2023-02-03T08:54:45;8.68;;;2.70;;
22024;SDS011;11176;51.448;6.650;2023-02-03T08:57:12;8.00;;;2.80;;
22024;SDS011;11176;51.448;6.650;2023-02-03T08:59:40;9.02;;;2.67;;
22024;SDS011;11176;51.448;6.650;2023-02-03T09:02:10;6.85;;;2.60;;
22024;SDS011;11176;51.448;6.650;2023-02-03T09:04:40;7.78;;;2.55;;
22024;SDS011;11176;51.448;6.650;2023-02-03T09:07:06;6.35;;;2.70;;
22024;SDS011;11176;51.448;6.650;2023-02-03T09:09:33;9.25;;;2.97;;
22024;SDS011;11176;51.448;6.650;2023-02-03T09:11:59;7.53;;;2.58;;
22024;SDS011;11176;51.448;6.650;2023-02-03T09:14:30;6.60;;;2.50;;
22024;SDS011;11176;51.448;6.650;2023-02-03T09:16:58;10.50;;;2.92;;
22024;SDS011;11176;51.448;6.650;2023-02-03T09:19:26;11.15;;;2.33;;
22024;SDS011;11176;51.448;6.650;2023-02-03T09:21:52;6.90;;;2.63;;
22024;SDS011;11176;51.448;6.650;2023-02-03T09:24:19;9.20;;;3.08;;
22024;SDS011;11176;51.448;6.650;2023-02-03T09:26:45;10.50;;;3.00;;
22024;SDS011;11176;51.448;6.650;2023-02-03T09:29:12;6.30;;;2.60;;
22024;SDS011;11176;51.448;6.650;2023-02-03T09:31:38;11.45;;;2.92;;
22024;SDS011;11176;51.448;6.650;2023-02-03T09:34:05;11.65;;;3.20;;
22024;SDS011;11176;51.448;6.650;2023-02-03T09:36:33;9.93;;;2.60;;
22024;SDS011;11176;51.448;6.650;2023-02-03T09:38:59;7.68;;;2.60;;
22024;SDS011;11176;51.448;6.650;2023-02-03T09:44:33;5.60;;;2.40;;
22024;SDS011;11176;51.448;6.650;2023-02-03T09:47:02;9.25;;;2.75;;
22024;SDS011;11176;51.448;6.650;2023-02-03T09:49:44;8.25;;;2.80;;
22024;SDS011;11176;51.448;6.650;2023-02-03T09:52:19;9.38;;;2.53;;
22024;SDS011;11176;51.448;6.650;2023-02-03T09:57:21;9.82;;;2.88;;
22024;SDS011;11176;51.448;6.650;2023-02-03T09:59:49;8.55;;;3.08;;
22024;SDS011;11176;51.448;6.650;2023-02-03T10:05:03;9.88;;;2.85;;
22024;SDS011;11176;51.448;6.650;2023-02-03T10:07:49;11.13;;;3.20;;
22024;SDS011;11176;51.448;6.650;2023-02-03T10:16:25;8.55;;;2.80;;
22024;SDS011;11176;51.448;6.650;2023-02-03T10:19:15;7.22;;;2.78;;
22024;SDS011;11176;51.448;6.650;2023-02-03T10:21:47;12.85;;;3.55;;
22024;SDS011;11176;51.448;6.650;2023-02-03T10:24:19;8.77;;;3.30;;
22024;SDS011;11176;51.448;6.650;2023-02-03T10:26:50;7.68;;;2.83;;
22024;SDS011;11176;51.448;6.650;2023-02-03T10:31:57;6.28;;;2.63;;
22024;SDS011;11176;51.448;6.650;2023-02-03T10:34:25;9.32;;;2.90;;
22024;SDS011;11176;51.448;6.650;2023-02-03T10:39:40;10.40;;;3.53;;
22024;SDS011;11176;51.448;6.650;2023-02-03T10:42:10;10.48;;;3.22;;
22024;SDS011;11176;51.448;6.650;2023-02-03T10:44:41;10.07;;;3.35;;
22024;SDS011;11176;51.448;6.650;2023-02-03T10:49:51;10.30;;;3.10;;
22024;SDS011;11176;51.448;6.650;2023-02-03T10:52:38;6.15;;;2.78;;
22024;SDS011;11176;51.448;6.650;2023-02-03T10:55:05;10.05;;;2.97;;
22024;SDS011;11176;51.448;6.650;2023-02-03T10:57:34;10.88;;;3.33;;
22024;SDS011;11176;51.448;6.650;2023-02-03T11:00:44;11.02;;;3.33;;
22024;SDS011;11176;51.448;6.650;2023-02-03T11:05:33;13.90;;;3.40;;
22024;SDS011;11176;51.448;6.650;2023-02-03T11:08:00;7.32;;;2.90;;
22024;SDS011;11176;51.448;6.650;2023-02-03T11:10:34;9.48;;;2.90;;
22024;SDS011;11176;51.448;6.650;2023-02-03T11:13:15;10.93;;;3.13;;
22024;SDS011;11176;51.448;6.650;2023-02-03T11:26:49;13.95;;;3.78;;
22024;SDS011;11176;51.448;6.650;2023-02-03T11:29:23;14.50;;;3.60;;
22024;SDS011;11176;51.448;6.650;2023-02-03T11:31:52;11.40;;;3.88;;
22024;SDS011;11176;51.448;6.650;2023-02-03T11:34:23;12.52;;;3.88;;
22024;SDS011;11176;51.448;6.650;2023-02-03T11:36:52;7.47;;;2.90;;
22024;SDS011;11176;51.448;6.650;2023-02-03T11:39:26;13.30;;;3.25;;
22024;SDS011;11176;51.448;6.650;2023-02-03T11:41:55;12.40;;;3.45;;
22024;SDS011;11176;51.448;6.650;2023-02-03T11:44:23;7.35;;;3.08;;
22024;SDS011;11176;51.448;6.650;2023-02-03T11:46:55;9.15;;;3.13;;
22024;SDS011;11176;51.448;6.650;2023-02-03T11:50:06;11.77;;;3.40;;
22024;SDS011;11176;51.448;6.650;2023-02-03T11:58:33;12.23;;;3.70;;
22024;SDS011;11176;51.448;6.650;2023-02-03T12:09:18;11.95;;;4.28;;
22024;SDS011;11176;51.448;6.650;2023-02-03T12:29:24;11.30;;;4.13;;
22024;SDS011;11176;51.448;6.650;2023-02-03T12:34:59;14.35;;;4.22;;
22024;SDS011;11176;51.448;6.650;2023-02-03T12:40:36;13.82;;;4.13;;
22024;SDS011;11176;51.448;6.650;2023-02-03T12:43:27;12.50;;;4.60;;
22024;SDS011;11176;51.448;6.650;2023-02-03T12:46:11;13.32;;;3.97;;
22024;SDS011;11176;51.448;6.650;2023-02-03T12:54:11;10.77;;;4.20;;
22024;SDS011;11176;51.448;6.650;2023-02-03T12:56:48;11.57;;;3.97;;
22024;SDS011;11176;51.448;6.650;2023-02-03T12:59:20;7.88;;;3.30;;
22024;SDS011;11176;51.448;6.650;2023-02-03T13:01:49;10.90;;;4.28;;
22024;SDS011;11176;51.448;6.650;2023-02-03T13:04:32;11.73;;;3.80;;
22024;SDS011;11176;51.448;6.650;2023-02-03T13:09:58;14.88;;;4.38;;
22024;SDS011;11176;51.448;6.650;2023-02-03T13:12:36;11.00;;;3.35;;
22024;SDS011;11176;51.448;6.650;2023-02-03T13:20:56;9.90;;;3.75;;
22024;SDS011;11176;51.448;6.650;2023-02-03T13:23:23;7.07;;;3.55;;
22024;SDS011;11176;51.448;6.650;2023-02-03T13:34:34;8.98;;;3.17;;
22024;SDS011;11176;51.448;6.650;2023-02-03T13:40:02;9.35;;;3.42;;
22024;SDS011;11176;51.448;6.650;2023-02-03T13:42:45;7.15;;;3.17;;
22024;SDS011;11176;51.448;6.650;2023-02-03T13:45:24;9.88;;;3.78;;
22024;SDS011;11176;51.448;6.650;2023-02-03T13:47:52;9.68;;;3.42;;
22024;SDS011;11176;51.448;6.650;2023-02-03T13:50:22;8.63;;;3.70;;
22024;SDS011;11176;51.448;6.650;2023-02-03T13:53:03;9.13;;;3.28;;
22024;SDS011;11176;51.448;6.650;2023-02-03T13:55:37;9.65;;;4.60;;
22024;SDS011;11176;51.448;6.650;2023-02-03T14:03:55;10.23;;;3.33;;
22024;SDS011;11176;51.448;6.650;2023-02-03T14:05:57;7.90;;;2.88;;
22024;SDS011;11176;51.448;6.650;2023-02-03T14:16:33;10.95;;;3.72;;
22024;SDS011;11176;51.448;6.650;2023-02-03T14:19:00;8.32;;;4.00;;
22024;SDS011;11176;51.448;6.650;2023-02-03T14:21:28;7.75;;;3.28;;
22024;SDS011;11176;51.448;6.650;2023-02-03T14:24:13;9.20;;;2.95;;
22024;SDS011;11176;51.448;6.650;2023-02-03T14:26:41;6.07;;;2.92;;
22024;SDS011;11176;51.448;6.650;2023-02-03T14:32:01;12.27;;;3.20;;
22024;SDS011;11176;51.448;6.650;2023-02-03T14:37:17;9.68;;;2.70;;
22024;SDS011;11176;51.448;6.650;2023-02-03T14:43:01;7.50;;;2.88;;
22024;SDS011;11176;51.448;6.650;2023-02-03T14:53:50;7.75;;;2.75;;
22024;SDS011;11176;51.448;6.650;2023-02-03T14:56:39;9.15;;;2.60;;
22024;SDS011;11176;51.448;6.650;2023-02-03T15:00:32;10.70;;;2.95;;
22024;SDS011;11176;51.448;6.650;2023-02-03T15:02:31;10.15;;;2.83;;
22024;SDS011;11176;51.448;6.650;2023-02-03T15:07:39;10.18;;;3.00;;
22024;SDS011;11176;51.448;6.650;2023-02-03T15:10:21;10.40;;;3.25;;
22024;SDS011;11176;51.448;6.650;2023-02-03T15:12:52;13.15;;;3.10;;
22024;SDS011;11176;51.448;6.650;2023-02-03T15:15:21;13.88;;;3.58;;
22024;SDS011;11176;51.448;6.650;2023-02-03T15:17:48;13.50;;;4.07;;
22024;SDS011;11176;51.448;6.650;2023-02-03T15:20:23;12.38;;;3.42;;
22024;SDS011;11176;51.448;6.650;2023-02-03T15:22:53;10.80;;;3.10;;
22024;SDS011;11176;51.448;6.650;2023-02-03T15:25:20;14.15;;;3.53;;
22024;SDS011;11176;51.448;6.650;2023-02-03T15:27:50;14.10;;;3.42;;
22024;SDS011;11176;51.448;6.650;2023-02-03T15:33:00;10.98;;;3.92;;
22024;SDS011;11176;51.448;6.650;2023-02-03T15:35:29;16.63;;;3.92;;
22024;SDS011;11176;51.448;6.650;2023-02-03T15:37:59;20.50;;;4.18;;
22024;SDS011;11176;51.448;6.650;2023-02-03T15:40:49;12.90;;;4.00;;
22024;SDS011;11176;51.448;6.650;2023-02-03T15:48:34;11.50;;;3.67;;
22024;SDS011;11176;51.448;6.650;2023-02-03T15:54:00;21.33;;;4.55;;
22024;SDS011;11176;51.448;6.650;2023-02-03T15:56:34;15.60;;;4.20;;
22024;SDS011;11176;51.448;6.650;2023-02-03T15:59:17;18.98;;;4.30;;
22024;SDS011;11176;51.448;6.650;2023-02-03T16:01:46;17.77;;;4.40;;
22024;SDS011;11176;51.448;6.650;2023-02-03T16:04:13;11.70;;;3.88;;
22024;SDS011;11176;51.448;6.650;2023-02-03T16:06:43;19.17;;;4.43;;
22024;SDS011;11176;51.448;6.650;2023-02-03T16:09:25;22.05;;;4.65;;
22024;SDS011;11176;51.448;6.650;2023-02-03T16:12:10;23.15;;;5.38;;
22024;SDS011;11176;51.448;6.650;2023-02-03T16:14:39;20.85;;;4.68;;
22024;SDS011;11176;51.448;6.650;2023-02-03T16:17:21;19.40;;;5.47;;
22024;SDS011;11176;51.448;6.650;2023-02-03T16:19:50;17.92;;;5.20;;
22024;SDS011;11176;51.448;6.650;2023-02-03T16:22:30;21.38;;;4.43;;
22024;SDS011;11176;51.448;6.650;2023-02-03T16:25:14;22.80;;;4.53;;
22024;SDS011;11176;51.448;6.650;2023-02-03T16:27:43;22.40;;;4.32;;
22024;SDS011;11176;51.448;6.650;2023-02-03T16:35:53;17.67;;;4.20;;
22024;SDS011;11176;51.448;6.650;2023-02-03T16:38:43;17.30;;;4.57;;
22024;SDS011;11176;51.448;6.650;2023-02-03T16:41:30;14.48;;;3.47;;
22024;SDS011;11176;51.448;6.650;2023-02-03T16:44:15;14.45;;;3.65;;
22024;SDS011;11176;51.448;6.650;2023-02-03T16:47:02;18.80;;;4.25;;
22024;SDS011;11176;51.448;6.650;2023-02-03T16:49:48;17.85;;;4.40;;
22024;SDS011;11176;51.448;6.650;2023-02-03T16:52:33;15.35;;;4.07;;
22024;SDS011;11176;51.448;6.650;2023-02-03T16:54:59;17.15;;;4.10;;
22024;SDS011;11176;51.448;6.650;2023-02-03T16:57:26;17.77;;;3.85;;
22024;SDS011;11176;51.448;6.650;2023-02-03T16:59:52;12.77;;;4.03;;
22024;SDS011;11176;51.448;6.650;2023-02-03T17:02:19;13.73;;;4.20;;
22024;SDS011;11176;51.448;6.650;2023-02-03T17:04:46;17.85;;;4.18;;
22024;SDS011;11176;51.448;6.650;2023-02-03T17:07:13;13.00;;;3.95;;
22024;SDS011;11176;51.448;6.650;2023-02-03T17:09:39;12.32;;;4.30;;
22024;SDS011;11176;51.448;6.650;2023-02-03T17:12:06;18.08;;;4.32;;
22024;SDS011;11176;51.448;6.650;2023-02-03T17:14:32;20.08;;;4.47;;
22024;SDS011;11176;51.448;6.650;2023-02-03T17:16:59;14.85;;;4.07;;
22024;SDS011;11176;51.448;6.650;2023-02-03T17:19:25;22.20;;;4.75;;
22024;SDS011;11176;51.448;6.650;2023-02-03T17:21:51;15.98;;;3.88;;
22024;SDS011;11176;51.448;6.650;2023-02-03T17:24:18;24.33;;;5.50;;
22024;SDS011;11176;51.448;6.650;2023-02-03T17:26:45;16.17;;;4.03;;
22024;SDS011;11176;51.448;6.650;2023-02-03T17:29:11;17.42;;;4.75;;
22024;SDS011;11176;51.448;6.650;2023-02-03T17:31:38;14.95;;;4.60;;
22024;SDS011;11176;51.448;6.650;2023-02-03T17:34:04;17.05;;;4.35;;
22024;SDS011;11176;51.448;6.650;2023-02-03T17:36:31;17.02;;;4.07;;
22024;SDS011;11176;51.448;6.650;2023-02-03T17:38:58;27.00;;;4.85;;
22024;SDS011;11176;51.448;6.650;2023-02-03T17:41:42;15.68;;;4.63;;
22024;SDS011;11176;51.448;6.650;2023-02-03T17:44:26;21.60;;;4.60;;
22024;SDS011;11176;51.448;6.650;2023-02-03T17:47:10;19.20;;;4.32;;
22024;SDS011;11176;51.448;6.650;2023-02-03T17:52:38;19.77;;;5.38;;
22024;SDS011;11176;51.448;6.650;2023-02-03T17:57:48;17.40;;;5.15;;
22024;SDS011;11176;51.448;6.650;2023-02-03T18:00:15;23.27;;;5.75;;
22024;SDS011;11176;51.448;6.650;2023-02-03T18:02:42;19.70;;;6.25;;
22024;SDS011;11176;51.448;6.650;2023-02-03T18:05:08;21.65;;;5.57;;
22024;SDS011;11176;51.448;6.650;2023-02-03T18:07:35;19.55;;;5.13;;
22024;SDS011;11176;51.448;6.650;2023-02-03T18:10:02;21.08;;;6.13;;
22024;SDS011;11176;51.448;6.650;2023-02-03T18:12:29;21.65;;;5.30;;